PWSweather.com
Personal Weather Stations
Station Observations
IBAVARIA50
Munich, PlieningDE 85652

MunichPlieningDE 85652

Lat: 48.19916153, Lon: 11.79794312

Elevation: 504

Station Type: Davis Vantage Pro2

http://wetterstation-pliening.info

Latest ConditionsUpdated 11:50:05 AM GMT+01:01 Sunday, Jan 21, 2018
Currently Today's Max Today's Min Today's Average
Temperature 34.4°F1.3°C 35.1°F1.7°C 33.5°F0.8°C 34.1°F1.2°C
Dew Point 31.4°F-0.3°C 33.5°F0.8°C 31.0°F-0.6°C 32.3°F0.2°C
Winds 12.0 mph W19.3 kmh W 20.0 mph W32.2 kmh W - 7.9 mph 12.7 kmh
Wind Gusts 19.0 mph30.6 kmh 26.0 mph41.8 kmh - -
Humidity 89% 95% 87% 93%
Pressure 29.93 in1013.5 mb 29.93 in1013.5 mb 29.46 in997.6 mb -
Precipitation - 0.15 in3.8 mm - -
Hour Temp Dew Point Humidity Winds Wind Gusts Pressure Precip Precip Rate Daily Precip Total
11:50 AM 34.4°F1.3°C 31.4°F-0.3°C 89% 12.0 mph W19.3 kmh W 19.0 mph30.6 kmh 29.93 in1013.5 mb 0.00 in0.0 mm 0.00 in0.0 mm 0.15 in3.8 mm
11:45 AM 34.5°F1.4°C 31.3°F-0.4°C 88% 10.0 mph W16.1 kmh W 19.0 mph30.6 kmh 29.92 in1013.2 mb 0.00 in0.0 mm 0.00 in0.0 mm 0.15 in3.8 mm
11:40 AM 34.7°F1.5°C 31.2°F-0.4°C 87% 10.0 mph WSW16.1 kmh WSW 18.0 mph29.0 kmh 29.92 in1013.2 mb 0.00 in0.0 mm 0.00 in0.0 mm 0.15 in3.8 mm
11:35 AM 34.8°F1.6°C 31.3°F-0.4°C 87% 18.0 mph WSW29.0 kmh WSW 17.0 mph27.4 kmh 29.91 in1012.9 mb 0.00 in0.0 mm 0.00 in0.0 mm 0.15 in3.8 mm
11:30 AM 34.8°F1.6°C 31.3°F-0.4°C 87% 18.0 mph W29.0 kmh W 18.0 mph29.0 kmh 29.91 in1012.9 mb 0.00 in0.0 mm 0.00 in0.0 mm 0.15 in3.8 mm
11:25 AM 34.7°F1.5°C 31.2°F-0.4°C 87% 7.0 mph W11.3 kmh W 21.0 mph33.8 kmh 29.91 in1012.9 mb 0.00 in0.0 mm 0.00 in0.0 mm 0.15 in3.8 mm
11:20 AM 34.6°F1.4°C 31.1°F-0.5°C 87% 16.0 mph WSW25.7 kmh WSW 17.0 mph27.4 kmh 29.90 in1012.5 mb 0.00 in0.0 mm 0.00 in0.0 mm 0.15 in3.8 mm
11:15 AM 34.6°F1.4°C 31.1°F-0.5°C 87% 12.0 mph WSW19.3 kmh WSW 21.0 mph33.8 kmh 29.90 in1012.5 mb 0.00 in0.0 mm 0.00 in0.0 mm 0.15 in3.8 mm
11:10 AM 34.6°F1.4°C 31.1°F-0.5°C 87% 16.0 mph WSW25.7 kmh WSW 19.0 mph30.6 kmh 29.90 in1012.5 mb 0.00 in0.0 mm 0.00 in0.0 mm 0.15 in3.8 mm
11:05 AM 34.5°F1.4°C 31.0°F-0.6°C 87% 6.0 mph W9.7 kmh W 21.0 mph33.8 kmh 29.90 in1012.5 mb 0.00 in0.0 mm 0.00 in0.0 mm 0.15 in3.8 mm
11:00 AM 34.5°F1.4°C 31.0°F-0.6°C 87% 12.0 mph W19.3 kmh W 18.0 mph29.0 kmh 29.90 in1012.5 mb 0.00 in0.0 mm 0.00 in0.0 mm 0.15 in3.8 mm
10:55 AM 34.5°F1.4°C 31.0°F-0.6°C 87% 8.0 mph SW12.9 kmh SW 24.0 mph38.6 kmh 29.89 in1012.2 mb 0.00 in0.0 mm 0.00 in0.0 mm 0.15 in3.8 mm
10:50 AM 34.5°F1.4°C 31.3°F-0.4°C 88% 12.0 mph WSW19.3 kmh WSW 23.0 mph37.0 kmh 29.89 in1012.2 mb 0.00 in0.0 mm 0.00 in0.0 mm 0.15 in3.8 mm
10:45 AM 34.4°F1.3°C 31.2°F-0.4°C 88% 12.0 mph WSW19.3 kmh WSW 21.0 mph33.8 kmh 29.88 in1011.9 mb 0.00 in0.0 mm 0.00 in0.0 mm 0.15 in3.8 mm
10:40 AM 34.4°F1.3°C 31.2°F-0.4°C 88% 7.0 mph SW11.3 kmh SW 20.0 mph32.2 kmh 29.88 in1011.9 mb 0.00 in0.0 mm 0.00 in0.0 mm 0.15 in3.8 mm
10:35 AM 34.4°F1.3°C 31.2°F-0.4°C 88% 15.0 mph WNW24.1 kmh WNW 21.0 mph33.8 kmh 29.87 in1011.5 mb 0.00 in0.0 mm 0.00 in0.0 mm 0.15 in3.8 mm
10:30 AM 34.4°F1.3°C 31.2°F-0.4°C 88% 7.0 mph WSW11.3 kmh WSW 18.0 mph29.0 kmh 29.87 in1011.5 mb 0.00 in0.0 mm 0.00 in0.0 mm 0.15 in3.8 mm
10:25 AM 34.4°F1.3°C 31.2°F-0.4°C 88% 13.0 mph W20.9 kmh W 25.0 mph40.2 kmh 29.87 in1011.5 mb 0.00 in0.0 mm 0.00 in0.0 mm 0.15 in3.8 mm
10:20 AM 34.4°F1.3°C 31.4°F-0.3°C 89% 13.0 mph W20.9 kmh W 23.0 mph37.0 kmh 29.86 in1011.2 mb 0.00 in0.0 mm 0.00 in0.0 mm 0.15 in3.8 mm
10:15 AM 34.4°F1.3°C 31.4°F-0.3°C 89% 10.0 mph W16.1 kmh W 21.0 mph33.8 kmh 29.86 in1011.2 mb 0.00 in0.0 mm 0.00 in0.0 mm 0.15 in3.8 mm
10:10 AM 34.5°F1.4°C 31.3°F-0.4°C 88% 11.0 mph W17.7 kmh W 22.0 mph35.4 kmh 29.85 in1010.8 mb 0.00 in0.0 mm 0.00 in0.0 mm 0.15 in3.8 mm
10:05 AM 34.4°F1.3°C 31.2°F-0.4°C 88% 13.0 mph WNW20.9 kmh WNW 23.0 mph37.0 kmh 29.85 in1010.8 mb 0.00 in0.0 mm 0.00 in0.0 mm 0.15 in3.8 mm
10:00 AM 34.4°F1.3°C 31.4°F-0.3°C 89% 20.0 mph W32.2 kmh W 26.0 mph41.8 kmh 29.85 in1010.8 mb 0.00 in0.0 mm 0.00 in0.0 mm 0.15 in3.8 mm
09:55 AM 34.4°F1.3°C 31.4°F-0.3°C 89% 17.0 mph WSW27.4 kmh WSW 20.0 mph32.2 kmh 29.84 in1010.5 mb 0.00 in0.0 mm 0.00 in0.0 mm 0.15 in3.8 mm
09:50 AM 34.4°F1.3°C 31.4°F-0.3°C 89% 15.0 mph WNW24.1 kmh WNW 26.0 mph41.8 kmh 29.84 in1010.5 mb 0.00 in0.0 mm 0.00 in0.0 mm 0.15 in3.8 mm
09:45 AM 34.4°F1.3°C 31.7°F-0.2°C 90% 11.0 mph W17.7 kmh W 22.0 mph35.4 kmh 29.83 in1010.2 mb 0.00 in0.0 mm 0.00 in0.0 mm 0.15 in3.8 mm
09:40 AM 34.4°F1.3°C 31.7°F-0.2°C 90% 11.0 mph W17.7 kmh W 20.0 mph32.2 kmh 29.83 in1010.2 mb 0.00 in0.0 mm 0.00 in0.0 mm 0.15 in3.8 mm
09:35 AM 34.3°F1.3°C 31.9°F-0.1°C 91% 11.0 mph SW17.7 kmh SW 19.0 mph30.6 kmh 29.82 in1009.8 mb 0.00 in0.0 mm 0.00 in0.0 mm 0.15 in3.8 mm
09:30 AM 34.3°F1.3°C 31.9°F-0.1°C 91% 9.0 mph WSW14.5 kmh WSW 18.0 mph29.0 kmh 29.82 in1009.8 mb 0.00 in0.0 mm 0.00 in0.0 mm 0.15 in3.8 mm
09:25 AM 34.3°F1.3°C 31.9°F-0.1°C 91% 8.0 mph WSW12.9 kmh WSW 20.0 mph32.2 kmh 29.81 in1009.5 mb 0.00 in0.0 mm 0.00 in0.0 mm 0.15 in3.8 mm
09:20 AM 34.3°F1.3°C 31.9°F-0.1°C 91% 18.0 mph WNW29.0 kmh WNW 18.0 mph29.0 kmh 29.81 in1009.5 mb 0.00 in0.0 mm 0.00 in0.0 mm 0.15 in3.8 mm
09:15 AM 34.3°F1.3°C 32.2°F0.1°C 92% 11.0 mph W17.7 kmh W 17.0 mph27.4 kmh 29.81 in1009.5 mb 0.00 in0.0 mm 0.00 in0.0 mm 0.15 in3.8 mm
09:10 AM 34.2°F1.2°C 32.1°F0.1°C 92% 12.0 mph NW19.3 kmh NW 20.0 mph32.2 kmh 29.80 in1009.1 mb 0.00 in0.0 mm 0.00 in0.0 mm 0.15 in3.8 mm
09:05 AM 34.1°F1.2°C 32.2°F0.1°C 93% 10.0 mph WSW16.1 kmh WSW 22.0 mph35.4 kmh 29.80 in1009.1 mb 0.00 in0.0 mm 0.00 in0.0 mm 0.15 in3.8 mm
09:00 AM 34.0°F1.1°C 32.4°F0.2°C 94% 12.0 mph WSW19.3 kmh WSW 15.0 mph24.1 kmh 29.79 in1008.8 mb 0.00 in0.0 mm 0.00 in0.0 mm 0.15 in3.8 mm
08:55 AM 34.0°F1.1°C 32.4°F0.2°C 94% 11.0 mph WSW17.7 kmh WSW 15.0 mph24.1 kmh 29.79 in1008.8 mb 0.00 in0.0 mm 0.00 in0.0 mm 0.15 in3.8 mm
08:50 AM 34.0°F1.1°C 32.4°F0.2°C 94% 10.0 mph WSW16.1 kmh WSW 16.0 mph25.7 kmh 29.78 in1008.5 mb 0.00 in0.0 mm 0.00 in0.0 mm 0.15 in3.8 mm
08:45 AM 34.0°F1.1°C 32.4°F0.2°C 94% 9.0 mph W14.5 kmh W 19.0 mph30.6 kmh 29.78 in1008.5 mb 0.00 in0.0 mm 0.00 in0.0 mm 0.15 in3.8 mm
08:40 AM 33.9°F1.1°C 32.3°F0.2°C 94% 9.0 mph WSW14.5 kmh WSW 19.0 mph30.6 kmh 29.78 in1008.5 mb 0.00 in0.0 mm 0.00 in0.0 mm 0.15 in3.8 mm
08:35 AM 34.0°F1.1°C 32.4°F0.2°C 94% 12.0 mph WSW19.3 kmh WSW 14.0 mph22.5 kmh 29.77 in1008.1 mb 0.00 in0.0 mm 0.00 in0.0 mm 0.15 in3.8 mm
08:30 AM 34.0°F1.1°C 32.4°F0.2°C 94% 13.0 mph W20.9 kmh W 13.0 mph20.9 kmh 29.77 in1008.1 mb 0.00 in0.0 mm 0.00 in0.0 mm 0.15 in3.8 mm
08:25 AM 34.0°F1.1°C 32.1°F0.1°C 93% 6.0 mph W9.7 kmh W 16.0 mph25.7 kmh 29.77 in1008.1 mb 0.00 in0.0 mm 0.00 in0.0 mm 0.15 in3.8 mm
08:20 AM 34.0°F1.1°C 32.4°F0.2°C 94% 8.0 mph SW12.9 kmh SW 15.0 mph24.1 kmh 29.77 in1008.1 mb 0.00 in0.0 mm 0.00 in0.0 mm 0.15 in3.8 mm
08:15 AM 34.1°F1.2°C 32.2°F0.1°C 93% 11.0 mph WSW17.7 kmh WSW 17.0 mph27.4 kmh 29.76 in1007.8 mb 0.00 in0.0 mm 0.00 in0.0 mm 0.15 in3.8 mm
08:10 AM 34.0°F1.1°C 32.4°F0.2°C 94% 10.0 mph WSW16.1 kmh WSW 17.0 mph27.4 kmh 29.76 in1007.8 mb 0.00 in0.0 mm 0.00 in0.0 mm 0.15 in3.8 mm
08:05 AM 34.1°F1.2°C 32.2°F0.1°C 93% 7.0 mph WNW11.3 kmh WNW 16.0 mph25.7 kmh 29.75 in1007.5 mb 0.00 in0.0 mm 0.00 in0.0 mm 0.15 in3.8 mm
08:00 AM 34.2°F1.2°C 32.3°F0.2°C 93% 10.0 mph W16.1 kmh W 17.0 mph27.4 kmh 29.75 in1007.5 mb 0.00 in0.0 mm 0.00 in0.0 mm 0.15 in3.8 mm
07:55 AM 34.4°F1.3°C 32.5°F0.3°C 93% 12.0 mph W19.3 kmh W 19.0 mph30.6 kmh 29.75 in1007.5 mb 0.00 in0.0 mm 0.00 in0.0 mm 0.15 in3.8 mm
07:50 AM 34.3°F1.3°C 32.2°F0.1°C 92% 11.0 mph WNW17.7 kmh WNW 17.0 mph27.4 kmh 29.75 in1007.5 mb 0.00 in0.0 mm 0.00 in0.0 mm 0.15 in3.8 mm
07:45 AM 34.3°F1.3°C 32.4°F0.2°C 93% 13.0 mph W20.9 kmh W 19.0 mph30.6 kmh 29.74 in1007.1 mb 0.00 in0.0 mm 0.00 in0.0 mm 0.15 in3.8 mm
07:40 AM 34.3°F1.3°C 32.4°F0.2°C 93% 12.0 mph W19.3 kmh W 20.0 mph32.2 kmh 29.74 in1007.1 mb 0.00 in0.0 mm 0.00 in0.0 mm 0.15 in3.8 mm
07:35 AM 34.3°F1.3°C 32.4°F0.2°C 93% 9.0 mph WSW14.5 kmh WSW 18.0 mph29.0 kmh 29.74 in1007.1 mb 0.00 in0.0 mm 0.00 in0.0 mm 0.15 in3.8 mm
07:30 AM 34.4°F1.3°C 32.5°F0.3°C 93% 10.0 mph WSW16.1 kmh WSW 17.0 mph27.4 kmh 29.74 in1007.1 mb 0.00 in0.0 mm 0.00 in0.0 mm 0.15 in3.8 mm
07:25 AM 34.4°F1.3°C 32.5°F0.3°C 93% 9.0 mph W14.5 kmh W 16.0 mph25.7 kmh 29.73 in1006.8 mb 0.00 in0.0 mm 0.00 in0.0 mm 0.15 in3.8 mm
07:20 AM 34.3°F1.3°C 32.4°F0.2°C 93% 13.0 mph W20.9 kmh W 17.0 mph27.4 kmh 29.73 in1006.8 mb 0.00 in0.0 mm 0.00 in0.0 mm 0.15 in3.8 mm
07:15 AM 34.2°F1.2°C 32.3°F0.2°C 93% 13.0 mph WSW20.9 kmh WSW 16.0 mph25.7 kmh 29.73 in1006.8 mb 0.00 in0.0 mm 0.00 in0.0 mm 0.15 in3.8 mm
07:10 AM 34.2°F1.2°C 32.3°F0.2°C 93% 9.0 mph SW14.5 kmh SW 16.0 mph25.7 kmh 29.72 in1006.4 mb 0.00 in0.0 mm 0.00 in0.0 mm 0.15 in3.8 mm
07:05 AM 34.2°F1.2°C 32.6°F0.3°C 94% 6.0 mph W9.7 kmh W 13.0 mph20.9 kmh 29.72 in1006.4 mb 0.00 in0.0 mm 0.00 in0.0 mm 0.15 in3.8 mm
07:00 AM 34.2°F1.2°C 32.6°F0.3°C 94% 10.0 mph WSW16.1 kmh WSW 16.0 mph25.7 kmh 29.71 in1006.1 mb 0.00 in0.0 mm 0.00 in0.0 mm 0.15 in3.8 mm
06:55 AM 34.1°F1.2°C 32.5°F0.3°C 94% 7.0 mph WSW11.3 kmh WSW 17.0 mph27.4 kmh 29.71 in1006.1 mb 0.00 in0.0 mm 0.00 in0.0 mm 0.15 in3.8 mm
06:50 AM 34.2°F1.2°C 32.6°F0.3°C 94% 6.0 mph SW9.7 kmh SW 15.0 mph24.1 kmh 29.71 in1006.1 mb 0.00 in0.0 mm 0.00 in0.0 mm 0.15 in3.8 mm
06:45 AM 34.1°F1.2°C 32.5°F0.3°C 94% 8.0 mph SW12.9 kmh SW 17.0 mph27.4 kmh 29.71 in1006.1 mb 0.00 in0.0 mm 0.00 in0.0 mm 0.15 in3.8 mm
06:40 AM 34.1°F1.2°C 32.5°F0.3°C 94% 6.0 mph SW9.7 kmh SW 11.0 mph17.7 kmh 29.71 in1006.1 mb 0.00 in0.0 mm 0.00 in0.0 mm 0.15 in3.8 mm
06:35 AM 34.0°F1.1°C 32.4°F0.2°C 94% 6.0 mph WSW9.7 kmh WSW 10.0 mph16.1 kmh 29.71 in1006.1 mb 0.01 in0.3 mm 0.00 in0.0 mm 0.15 in3.8 mm
06:30 AM 34.0°F1.1°C 32.4°F0.2°C 94% 4.0 mph WSW6.4 kmh WSW 10.0 mph16.1 kmh 29.70 in1005.8 mb 0.01 in0.3 mm 0.00 in0.0 mm 0.15 in3.8 mm
06:25 AM 34.0°F1.1°C 32.7°F0.4°C 95% 5.0 mph W8.0 kmh W 11.0 mph17.7 kmh 29.70 in1005.8 mb 0.01 in0.3 mm 0.00 in0.0 mm 0.15 in3.8 mm
06:20 AM 33.9°F1.1°C 32.6°F0.3°C 95% 6.0 mph WSW9.7 kmh WSW 10.0 mph16.1 kmh 29.70 in1005.8 mb 0.01 in0.3 mm 0.00 in0.0 mm 0.15 in3.8 mm
06:15 AM 33.9°F1.1°C 32.6°F0.3°C 95% 8.0 mph SW12.9 kmh SW 9.0 mph14.5 kmh 29.69 in1005.4 mb 0.01 in0.3 mm 0.00 in0.0 mm 0.15 in3.8 mm
06:10 AM 33.8°F1.0°C 32.5°F0.3°C 95% 6.0 mph WSW9.7 kmh WSW 13.0 mph20.9 kmh 29.69 in1005.4 mb 0.02 in0.5 mm 0.00 in0.0 mm 0.15 in3.8 mm
06:05 AM 33.8°F1.0°C 32.5°F0.3°C 95% 4.0 mph WSW6.4 kmh WSW 9.0 mph14.5 kmh 29.69 in1005.4 mb 0.02 in0.5 mm 0.00 in0.0 mm 0.15 in3.8 mm
06:00 AM 33.8°F1.0°C 32.5°F0.3°C 95% 5.0 mph WSW8.0 kmh WSW 9.0 mph14.5 kmh 29.69 in1005.4 mb 0.02 in0.5 mm 0.00 in0.0 mm 0.15 in3.8 mm
05:55 AM 33.7°F0.9°C 32.4°F0.2°C 95% 6.0 mph SW9.7 kmh SW 9.0 mph14.5 kmh 29.68 in1005.1 mb 0.02 in0.5 mm 0.00 in0.0 mm 0.15 in3.8 mm
05:50 AM 33.7°F0.9°C 32.4°F0.2°C 95% 4.0 mph SSW6.4 kmh SSW 11.0 mph17.7 kmh 29.68 in1005.1 mb 0.02 in0.5 mm 0.00 in0.0 mm 0.15 in3.8 mm
05:45 AM 33.7°F0.9°C 32.4°F0.2°C 95% 5.0 mph WSW8.0 kmh WSW 11.0 mph17.7 kmh 29.68 in1005.1 mb 0.03 in0.8 mm 0.00 in0.0 mm 0.15 in3.8 mm
05:40 AM 33.7°F0.9°C 32.4°F0.2°C 95% 6.0 mph WSW9.7 kmh WSW 10.0 mph16.1 kmh 29.67 in1004.7 mb 0.03 in0.8 mm 0.12 in3.0 mm 0.15 in3.8 mm
05:35 AM 33.6°F0.9°C 32.3°F0.2°C 95% 5.0 mph W8.0 kmh W 10.0 mph16.1 kmh 29.67 in1004.7 mb 0.02 in0.5 mm 0.00 in0.0 mm 0.14 in3.6 mm
05:30 AM 33.5°F0.8°C 32.2°F0.1°C 95% 5.0 mph W8.0 kmh W 9.0 mph14.5 kmh 29.67 in1004.7 mb 0.02 in0.5 mm 0.00 in0.0 mm 0.14 in3.6 mm
05:25 AM 33.5°F0.8°C 32.2°F0.1°C 95% 9.0 mph WSW14.5 kmh WSW 10.0 mph16.1 kmh 29.67 in1004.7 mb 0.02 in0.5 mm 0.00 in0.0 mm 0.14 in3.6 mm
05:20 AM 33.5°F0.8°C 32.2°F0.1°C 95% 8.0 mph W12.9 kmh W 11.0 mph17.7 kmh 29.66 in1004.4 mb 0.02 in0.5 mm 0.00 in0.0 mm 0.14 in3.6 mm
05:15 AM 33.5°F0.8°C 32.2°F0.1°C 95% 3.0 mph WSW4.8 kmh WSW 9.0 mph14.5 kmh 29.66 in1004.4 mb 0.03 in0.8 mm 0.12 in3.0 mm 0.14 in3.6 mm
05:10 AM 33.5°F0.8°C 32.2°F0.1°C 95% 6.0 mph WSW9.7 kmh WSW 10.0 mph16.1 kmh 29.66 in1004.4 mb 0.02 in0.5 mm 0.00 in0.0 mm 0.13 in3.3 mm
05:05 AM 33.6°F0.9°C 32.3°F0.2°C 95% 7.0 mph W11.3 kmh W 10.0 mph16.1 kmh 29.65 in1004.1 mb 0.02 in0.5 mm 0.00 in0.0 mm 0.13 in3.3 mm
05:00 AM 33.6°F0.9°C 32.3°F0.2°C 95% 6.0 mph W9.7 kmh W 10.0 mph16.1 kmh 29.64 in1003.7 mb 0.02 in0.5 mm 0.00 in0.0 mm 0.13 in3.3 mm
04:55 AM 33.6°F0.9°C 32.3°F0.2°C 95% 5.0 mph W8.0 kmh W 12.0 mph19.3 kmh 29.64 in1003.7 mb 0.02 in0.5 mm 0.00 in0.0 mm 0.13 in3.3 mm
04:50 AM 33.7°F0.9°C 32.4°F0.2°C 95% 5.0 mph WSW8.0 kmh WSW 11.0 mph17.7 kmh 29.64 in1003.7 mb 0.02 in0.5 mm 0.00 in0.0 mm 0.13 in3.3 mm
04:45 AM 33.7°F0.9°C 32.4°F0.2°C 95% 8.0 mph W12.9 kmh W 12.0 mph19.3 kmh 29.64 in1003.7 mb 0.02 in0.5 mm 0.00 in0.0 mm 0.12 in3.0 mm
04:40 AM 33.7°F0.9°C 32.4°F0.2°C 95% 5.0 mph W8.0 kmh W 11.0 mph17.7 kmh 29.63 in1003.4 mb 0.02 in0.5 mm 0.00 in0.0 mm 0.12 in3.0 mm
04:35 AM 33.7°F0.9°C 32.4°F0.2°C 95% 5.0 mph W8.0 kmh W 10.0 mph16.1 kmh 29.63 in1003.4 mb 0.02 in0.5 mm 0.00 in0.0 mm 0.12 in3.0 mm
04:30 AM 33.7°F0.9°C 32.4°F0.2°C 95% 6.0 mph WSW9.7 kmh WSW 10.0 mph16.1 kmh 29.62 in1003.0 mb 0.02 in0.5 mm 0.00 in0.0 mm 0.12 in3.0 mm
04:25 AM 33.7°F0.9°C 32.4°F0.2°C 95% 5.0 mph W8.0 kmh W 10.0 mph16.1 kmh 29.62 in1003.0 mb 0.02 in0.5 mm 0.00 in0.0 mm 0.12 in3.0 mm
04:20 AM 33.7°F0.9°C 32.4°F0.2°C 95% 6.0 mph WSW9.7 kmh WSW 10.0 mph16.1 kmh 29.62 in1003.0 mb 0.03 in0.8 mm 0.12 in3.0 mm 0.12 in3.0 mm
04:15 AM 33.7°F0.9°C 32.4°F0.2°C 95% 6.0 mph W9.7 kmh W 9.0 mph14.5 kmh 29.61 in1002.7 mb 0.02 in0.5 mm 0.00 in0.0 mm 0.11 in2.8 mm
04:10 AM 33.7°F0.9°C 32.4°F0.2°C 95% 6.0 mph W9.7 kmh W 10.0 mph16.1 kmh 29.61 in1002.7 mb 0.03 in0.8 mm 0.00 in0.0 mm 0.11 in2.8 mm
04:05 AM 33.7°F0.9°C 32.4°F0.2°C 95% 5.0 mph WSW8.0 kmh WSW 11.0 mph17.7 kmh 29.60 in1002.4 mb 0.03 in0.8 mm 0.00 in0.0 mm 0.11 in2.8 mm
04:00 AM 33.7°F0.9°C 32.4°F0.2°C 95% 7.0 mph WSW11.3 kmh WSW 11.0 mph17.7 kmh 29.60 in1002.4 mb 0.03 in0.8 mm 0.00 in0.0 mm 0.11 in2.8 mm
03:55 AM 33.8°F1.0°C 32.5°F0.3°C 95% 6.0 mph WNW9.7 kmh WNW 12.0 mph19.3 kmh 29.59 in1002.0 mb 0.03 in0.8 mm 0.00 in0.0 mm 0.10 in2.5 mm
03:50 AM 33.8°F1.0°C 32.5°F0.3°C 95% 4.0 mph W6.4 kmh W 11.0 mph17.7 kmh 29.59 in1002.0 mb 0.03 in0.8 mm 0.00 in0.0 mm 0.10 in2.5 mm
03:45 AM 33.8°F1.0°C 32.5°F0.3°C 95% 6.0 mph SW9.7 kmh SW 12.0 mph19.3 kmh 29.59 in1002.0 mb 0.03 in0.8 mm 0.00 in0.0 mm 0.09 in2.3 mm
03:40 AM 33.7°F0.9°C 32.4°F0.2°C 95% 4.0 mph W6.4 kmh W 14.0 mph22.5 kmh 29.58 in1001.7 mb 0.03 in0.8 mm 0.00 in0.0 mm 0.09 in2.3 mm
03:35 AM 33.7°F0.9°C 32.4°F0.2°C 95% 7.0 mph WNW11.3 kmh WNW 12.0 mph19.3 kmh 29.58 in1001.7 mb 0.03 in0.8 mm 0.00 in0.0 mm 0.09 in2.3 mm
03:30 AM 33.6°F0.9°C 32.3°F0.2°C 95% 5.0 mph W8.0 kmh W 11.0 mph17.7 kmh 29.58 in1001.7 mb 0.04 in1.0 mm 0.00 in0.0 mm 0.09 in2.3 mm
03:25 AM 33.7°F0.9°C 32.4°F0.2°C 95% 6.0 mph W9.7 kmh W 11.0 mph17.7 kmh 29.57 in1001.4 mb 0.04 in1.0 mm 0.12 in3.0 mm 0.09 in2.3 mm
03:20 AM 33.7°F0.9°C 32.4°F0.2°C 95% 5.0 mph WSW8.0 kmh WSW 13.0 mph20.9 kmh 29.56 in1001.0 mb 0.03 in0.8 mm 0.00 in0.0 mm 0.09 in2.3 mm
03:15 AM 33.6°F0.9°C 32.3°F0.2°C 95% 10.0 mph W16.1 kmh W 12.0 mph19.3 kmh 29.56 in1001.0 mb 0.04 in1.0 mm 0.12 in3.0 mm 0.09 in2.3 mm
03:10 AM 33.7°F0.9°C 32.4°F0.2°C 95% 6.0 mph WSW9.7 kmh WSW 10.0 mph16.1 kmh 29.56 in1001.0 mb 0.03 in0.8 mm 0.00 in0.0 mm 0.08 in2.0 mm
03:05 AM 33.7°F0.9°C 32.4°F0.2°C 95% 7.0 mph WNW11.3 kmh WNW 13.0 mph20.9 kmh 29.55 in1000.7 mb 0.03 in0.8 mm 0.00 in0.0 mm 0.08 in2.0 mm
03:00 AM 33.7°F0.9°C 32.4°F0.2°C 95% 12.0 mph W19.3 kmh W 14.0 mph22.5 kmh 29.55 in1000.7 mb 0.04 in1.0 mm 0.01 in0.3 mm 0.08 in2.0 mm
02:55 AM 33.7°F0.9°C 32.4°F0.2°C 95% 6.0 mph WSW9.7 kmh WSW 13.0 mph20.9 kmh 29.55 in1000.7 mb 0.03 in0.8 mm 0.00 in0.0 mm 0.07 in1.8 mm
02:50 AM 33.8°F1.0°C 32.5°F0.3°C 95% 5.0 mph W8.0 kmh W 12.0 mph19.3 kmh 29.54 in1000.3 mb 0.04 in1.0 mm 0.12 in3.0 mm 0.07 in1.8 mm
02:45 AM 33.9°F1.1°C 32.6°F0.3°C 95% 7.0 mph WSW11.3 kmh WSW 12.0 mph19.3 kmh 29.54 in1000.3 mb 0.03 in0.8 mm 0.00 in0.0 mm 0.06 in1.5 mm
02:40 AM 33.9°F1.1°C 32.6°F0.3°C 95% 7.0 mph WSW11.3 kmh WSW 11.0 mph17.7 kmh 29.54 in1000.3 mb 0.03 in0.8 mm 0.00 in0.0 mm 0.06 in1.5 mm
02:35 AM 33.9°F1.1°C 32.6°F0.3°C 95% 6.0 mph W9.7 kmh W 12.0 mph19.3 kmh 29.53 in1000.0 mb 0.03 in0.8 mm 0.12 in3.0 mm 0.06 in1.5 mm
02:30 AM 33.9°F1.1°C 32.6°F0.3°C 95% 7.0 mph W11.3 kmh W 11.0 mph17.7 kmh 29.53 in1000.0 mb 0.02 in0.5 mm 0.00 in0.0 mm 0.06 in1.5 mm
02:25 AM 33.9°F1.1°C 32.6°F0.3°C 95% 9.0 mph W14.5 kmh W 12.0 mph19.3 kmh 29.52 in999.7 mb 0.03 in0.8 mm 0.00 in0.0 mm 0.06 in1.5 mm
02:20 AM 33.9°F1.1°C 32.6°F0.3°C 95% 8.0 mph W12.9 kmh W 12.0 mph19.3 kmh 29.52 in999.7 mb 0.03 in0.8 mm 0.00 in0.0 mm 0.06 in1.5 mm
02:15 AM 33.9°F1.1°C 32.6°F0.3°C 95% 5.0 mph W8.0 kmh W 11.0 mph17.7 kmh 29.51 in999.3 mb 0.03 in0.8 mm 0.00 in0.0 mm 0.05 in1.3 mm
02:10 AM 33.9°F1.1°C 32.6°F0.3°C 95% 6.0 mph W9.7 kmh W 14.0 mph22.5 kmh 29.51 in999.3 mb 0.03 in0.8 mm 0.00 in0.0 mm 0.05 in1.3 mm
02:05 AM 33.9°F1.1°C 32.6°F0.3°C 95% 6.0 mph W9.7 kmh W 12.0 mph19.3 kmh 29.51 in999.3 mb 0.03 in0.8 mm 0.00 in0.0 mm 0.05 in1.3 mm
02:00 AM 34.0°F1.1°C 32.7°F0.4°C 95% 10.0 mph WSW16.1 kmh WSW 11.0 mph17.7 kmh 29.50 in999.0 mb 0.03 in0.8 mm 0.00 in0.0 mm 0.04 in1.0 mm
01:55 AM 34.1°F1.2°C 32.8°F0.4°C 95% 9.0 mph W14.5 kmh W 9.0 mph14.5 kmh 29.50 in999.0 mb 0.03 in0.8 mm 0.12 in3.0 mm 0.04 in1.0 mm
01:50 AM 34.2°F1.2°C 32.9°F0.5°C 95% 5.0 mph WSW8.0 kmh WSW 12.0 mph19.3 kmh 29.50 in999.0 mb 0.02 in0.5 mm 0.00 in0.0 mm 0.03 in0.8 mm
01:45 AM 34.1°F1.2°C 32.8°F0.4°C 95% 5.0 mph W8.0 kmh W 9.0 mph14.5 kmh 29.49 in998.6 mb 0.02 in0.5 mm 0.00 in0.0 mm 0.03 in0.8 mm
01:40 AM 34.0°F1.1°C 32.7°F0.4°C 95% 5.0 mph W8.0 kmh W 7.0 mph11.3 kmh 29.49 in998.6 mb 0.03 in0.8 mm 0.00 in0.0 mm 0.03 in0.8 mm
01:35 AM 34.0°F1.1°C 32.7°F0.4°C 95% 3.0 mph W4.8 kmh W 5.0 mph8.0 kmh 29.49 in998.6 mb 0.03 in0.8 mm 0.00 in0.0 mm 0.03 in0.8 mm
01:30 AM 34.0°F1.1°C 32.4°F0.2°C 94% 3.0 mph WSW4.8 kmh WSW 5.0 mph8.0 kmh 29.48 in998.3 mb 0.03 in0.8 mm 0.12 in3.0 mm 0.03 in0.8 mm
01:25 AM 34.0°F1.1°C 32.4°F0.2°C 94% 3.0 mph WSW4.8 kmh WSW 6.0 mph9.7 kmh 29.48 in998.3 mb 0.02 in0.5 mm 0.00 in0.0 mm 0.02 in0.5 mm
01:20 AM 34.1°F1.2°C 32.5°F0.3°C 94% 4.0 mph W6.4 kmh W 6.0 mph9.7 kmh 29.48 in998.3 mb 0.02 in0.5 mm 0.00 in0.0 mm 0.02 in0.5 mm
01:15 AM 34.2°F1.2°C 32.6°F0.3°C 94% 5.0 mph WNW8.0 kmh WNW 7.0 mph11.3 kmh 29.48 in998.3 mb 0.02 in0.5 mm 0.00 in0.0 mm 0.02 in0.5 mm
01:10 AM 34.4°F1.3°C 32.8°F0.4°C 94% 5.0 mph WSW8.0 kmh WSW 7.0 mph11.3 kmh 29.48 in998.3 mb 0.02 in0.5 mm 0.00 in0.0 mm 0.02 in0.5 mm
01:05 AM 34.5°F1.4°C 32.9°F0.5°C 94% 4.0 mph W6.4 kmh W 6.0 mph9.7 kmh 29.48 in998.3 mb 0.02 in0.5 mm 0.12 in3.0 mm 0.02 in0.5 mm
01:00 AM 34.6°F1.4°C 33.0°F0.6°C 94% 4.0 mph W6.4 kmh W 7.0 mph11.3 kmh 29.48 in998.3 mb 0.01 in0.3 mm 0.00 in0.0 mm 0.01 in0.3 mm
12:55 AM 34.7°F1.5°C 33.1°F0.6°C 94% 5.0 mph W8.0 kmh W 6.0 mph9.7 kmh 29.47 in998.0 mb 0.01 in0.3 mm 0.00 in0.0 mm 0.01 in0.3 mm
12:50 AM 34.9°F1.6°C 33.3°F0.7°C 94% 4.0 mph WSW6.4 kmh WSW 7.0 mph11.3 kmh 29.47 in998.0 mb 0.01 in0.3 mm 0.00 in0.0 mm 0.01 in0.3 mm
12:45 AM 35.0°F1.7°C 33.4°F0.8°C 94% 4.0 mph W6.4 kmh W 6.0 mph9.7 kmh 29.47 in998.0 mb 0.01 in0.3 mm 0.12 in3.0 mm 0.01 in0.3 mm
12:40 AM 35.1°F1.7°C 33.2°F0.7°C 93% 3.0 mph WNW4.8 kmh WNW 6.0 mph9.7 kmh 29.47 in998.0 mb 0.00 in0.0 mm 0.00 in0.0 mm 0.00 in0.0 mm
12:35 AM 35.1°F1.7°C 33.5°F0.8°C 94% 3.0 mph WNW4.8 kmh WNW 4.0 mph6.4 kmh 29.47 in998.0 mb 0.00 in0.0 mm 0.00 in0.0 mm 0.00 in0.0 mm
12:30 AM 35.1°F1.7°C 33.5°F0.8°C 94% 4.0 mph NW6.4 kmh NW 4.0 mph6.4 kmh 29.47 in998.0 mb 0.00 in0.0 mm 0.00 in0.0 mm 0.00 in0.0 mm
12:25 AM 35.1°F1.7°C 33.5°F0.8°C 94% 3.0 mph WSW4.8 kmh WSW 5.0 mph8.0 kmh 29.47 in998.0 mb 0.00 in0.0 mm 0.00 in0.0 mm 0.00 in0.0 mm
12:20 AM 35.0°F1.7°C 33.4°F0.8°C 94% 2.0 mph WSW3.2 kmh WSW 4.0 mph6.4 kmh 29.46 in997.6 mb 0.00 in0.0 mm 0.00 in0.0 mm 0.00 in0.0 mm
12:15 AM 34.9°F1.6°C 33.3°F0.7°C 94% 3.0 mph SW4.8 kmh SW 5.0 mph8.0 kmh 29.46 in997.6 mb 0.00 in0.0 mm 0.00 in0.0 mm 0.00 in0.0 mm
12:10 AM 34.8°F1.6°C 33.2°F0.7°C 94% 2.0 mph SW3.2 kmh SW 4.0 mph6.4 kmh 29.46 in997.6 mb 0.00 in0.0 mm 0.00 in0.0 mm 0.00 in0.0 mm
12:05 AM 34.8°F1.6°C 33.2°F0.7°C 94% 2.0 mph WSW3.2 kmh WSW 4.0 mph6.4 kmh 29.46 in997.6 mb 0.00 in0.0 mm 0.00 in0.0 mm 0.00 in0.0 mm
12:00 AM 34.7°F1.5°C 33.1°F0.6°C 94% 1.0 mph SW1.6 kmh SW 4.0 mph6.4 kmh 29.46 in997.6 mb 0.00 in0.0 mm 0.00 in0.0 mm 0.21 in5.3 mm